Latest Weather Observations for Nullarbor

IDS60801

Issued at 1:01 pm CST Tuesday 30 June 2015 (issued every 30 minutes, with the page automatically refreshed every 10 minutes)

About weather observations | Map of weather stations | Latest weather observations for SA | Other Formats
Station Details ID: 018106 Name: NULLARBOR Lat: -31.45 Lon: 130.90 Height: 64.0 m
Data from the previous 72 hours. | See also: Recent months at Nullarbor
Date/Time
CST
Temp
°C
App
Temp
°C
Dew
Point
Rel
Hum
%
Delta-T
°C
Wind Press
QNH
hPa
Press
MSL
hPa
Rain
since 9 am
mm
Dir
 
Spd
km/h
Gust
km/h
Spd
kts
Gust
kts
30/01:00pm 15.8 13.0 5.1 49 5.0 E 9 17 5 9 1029.8 1029.8 0.0
30/12:30pm 15.8 13.4 5.4 50 4.9 ESE 7 13 4 7 1030.3 1030.3 0.0
30/12:00pm 15.4 13.1 5.6 52 4.7 E 7 15 4 8 1030.6 1030.6 0.0
30/11:30am 14.5 11.8 5.8 56 4.1 ESE 9 15 5 8 1030.9 1030.9 0.0
30/11:00am 14.3 11.9 6.9 61 3.6 E 9 13 5 7 1031.3 1031.3 0.0
30/10:30am 13.4 11.2 6.3 62 3.4 NE 7 9 4 5 1031.6 1031.6 0.0
30/10:00am 11.5 10.0 9.2 86 1.2 N 7 9 4 5 1031.7 1031.7 0.0
30/09:30am 7.6 5.9 7.5 99 0.0 N 6 9 3 5 1031.5 1031.5 0.0
30/09:00am 4.5 2.1 4.4 99 0.0 NNW 6 7 3 4 1031.2 1031.2 0.2
30/08:50am 3.5 0.4 3.4 99 0.0 NNW 9 11 5 6 1031.5 1031.5 0.2
30/08:30am 1.1 -2.1 1.0 99 0.0 NNW 7 7 4 4 1031.0 1031.0 0.2
30/08:00am 0.2 -3.5 0.1 99 0.0 NNW 9 11 5 6 1030.9 1030.9 0.2
30/07:30am 0.6 -3.8 0.5 99 0.0 N 13 13 7 7 1030.5 1030.5 0.2
30/07:00am 1.4 -2.5 1.3 99 0.0 N 11 13 6 7 1030.4 1030.4 0.2
30/06:30am 2.1 -2.0 2.0 99 0.0 NNE 13 13 7 7 1030.0 1030.0 0.2
30/06:28am 2.0 -2.2 1.9 99 0.0 NNE 13 13 7 7 1030.0 1030.0 0.2
30/06:00am 1.7 -2.5 1.6 99 0.0 N 13 15 7 8 1029.7 1029.7 0.2
30/05:30am 2.2 -1.9 2.1 99 0.0 N 13 15 7 8 1029.6 1029.6 0.2
30/05:00am 2.0 -2.5 1.9 99 0.0 N 15 15 8 8 1029.3 1029.3 0.2
30/04:30am 1.8 -3.1 1.7 99 0.0 NNE 17 19 9 10 1029.2 1029.2 0.2
30/04:00am 1.9 -3.4 1.8 99 0.0 NNE 19 19 10 10 1029.1 1029.1 0.0
30/03:30am 2.3 -2.6 2.2 99 0.0 NNE 17 19 9 10 1029.2 1029.2 0.0
30/03:00am 2.4 -2.1 2.3 99 0.0 N 15 17 8 9 1029.2 1029.2 0.0
30/02:30am 2.4 -1.7 2.3 99 0.0 N 13 17 7 9 1029.5 1029.5 0.0
30/02:00am 2.4 -1.7 2.1 98 0.1 NNE 13 17 7 9 1029.9 1029.9 0.0
30/01:30am 3.0 -1.0 2.7 98 0.1 NNE 13 15 7 8 1030.1 1030.1 0.0
30/01:00am 4.1 1.0 3.8 98 0.1 NNE 9 11 5 6 1030.2 1030.2 0.0
30/12:30am 4.1 1.4 3.5 96 0.2 NNE 7 9 4 5 1030.2 1030.2 0.0
30/12:00am 6.1 3.8 5.7 97 0.2 ENE 7 9 4 5 1030.2 1030.2 0.0
 
Date/Time
CST
Temp
°C
App
Temp
°C
Dew
Point
Rel
Hum
%
Delta-T
°C
Wind Press
QNH
hPa
Press
MSL
hPa
Rain
since 9 am
mm
Dir
 
Spd
km/h
Gust
km/h
Spd
kts
Gust
kts
29/11:30pm 6.0 3.6 5.4 96 0.3 E 7 9 4 5 1030.2 1030.2 0.0
29/11:00pm 8.0 5.7 7.4 96 0.3 ESE 9 11 5 6 1030.2 1030.2 0.0
29/10:30pm 7.8 5.0 7.1 95 0.3 ESE 11 13 6 7 1030.1 1030.1 0.0
29/10:00pm 7.8 5.4 6.9 94 0.4 SE 9 9 5 5 1030.2 1030.2 0.0
29/09:30pm 7.2 4.5 5.8 91 0.6 SE 9 11 5 6 1030.3 1030.3 0.0
29/09:00pm 8.0 5.5 6.6 91 0.6 SE 9 11 5 6 1030.4 1030.4 0.0
29/08:30pm 8.1 5.6 6.4 89 0.8 SSE 9 11 5 6 1030.4 1030.4 0.0
29/08:00pm 8.5 5.2 6.6 88 0.9 SSE 13 15 7 8 1030.5 1030.5 0.0
29/07:30pm 8.5 5.1 6.1 85 1.1 SSE 13 15 7 8 1030.3 1030.3 0.0
29/07:00pm 9.3 6.0 6.6 83 1.3 S 13 15 7 8 1030.1 1030.1 0.0
29/06:30pm 10.5 7.3 6.8 78 1.7 S 13 15 7 8 1029.9 1029.9 0.0
29/06:00pm 12.3 9.7 7.6 73 2.3 S 11 15 6 8 1029.6 1029.6 0.0
29/05:30pm 13.5 8.8 7.9 69 2.8 S 22 30 12 16 1029.3 1029.3 0.0
29/05:00pm 14.4 9.0 6.5 59 3.8 SSW 24 30 13 16 1029.3 1029.3 0.0
29/04:30pm 15.1 9.8 5.0 51 4.7 SSW 22 28 12 15 1029.0 1029.0 0.0
29/04:00pm 15.7 9.5 4.4 47 5.3 SSW 26 32 14 17 1028.9 1028.9 0.0
29/03:30pm 16.2 10.8 4.3 45 5.5 S 22 28 12 15 1028.9 1028.9 0.0
29/03:00pm 16.6 12.0 3.6 42 6.0 S 17 26 9 14 1029.0 1029.0 0.0
29/02:30pm 17.3 13.1 3.6 40 6.3 S 15 20 8 11 1029.2 1029.2 0.0
29/02:00pm 16.9 13.0 3.6 41 6.2 SSE 13 24 7 13 1029.5 1029.5 0.0
29/01:30pm 17.3 13.6 4.6 43 6.0 SSE 13 20 7 11 1029.9 1029.9 0.0
29/01:00pm 16.3 13.4 4.7 46 5.5 S 9 15 5 8 1030.4 1030.4 0.0
29/12:30pm 16.5 14.3 6.3 51 5.0 E 7 11 4 6 1030.9 1030.9 0.0
29/12:00pm 15.4 12.9 6.7 56 4.2 E 9 15 5 8 1031.4 1031.4 0.0
29/11:30am 14.9 12.4 6.7 58 4.0 ENE 9 13 5 7 1031.9 1031.9 0.0
29/11:00am 13.6 10.4 6.7 63 3.3 NE 13 19 7 10 1032.3 1032.4 0.0
29/10:30am 13.2 10.0 6.8 65 3.1 NE 13 17 7 9 1032.3 1032.4 0.0
29/10:00am 11.2 9.4 11.0 99 0.1 NE 11 13 6 7 1032.2 1032.3 0.0
29/09:30am 8.4 5.9 8.4 100 0.0 NNE 11 15 6 8 1032.1 1032.1 0.0
29/09:06am 6.7 3.8 6.6 99 0.0 NE 11 13 6 7 1032.1 1032.1 0.0
29/09:00am 6.1 3.1 6.0 99 0.0 NE 11 13 6 7 1032.1 1032.1 0.0
29/08:30am 2.4 -1.3 2.3 99 0.0 NNE 11 13 6 7 1031.9 1031.9 0.0
29/08:00am 0.6 -3.0 0.5 99 0.0 NE 9 11 5 6 1031.7 1031.7 0.0
29/07:30am 3.0 -0.2 2.9 99 0.0 ENE 9 11 5 6 1031.5 1031.5 0.0
29/07:00am 1.7 -2.1 1.6 99 0.0 NE 11 13 6 7 1031.3 1031.3 0.0
29/06:30am 1.5 -2.4 1.4 99 0.0 NE 11 13 6 7 1031.2 1031.2 0.0
29/06:00am 2.8 -0.8 2.7 99 0.0 NE 11 13 6 7 1031.2 1031.2 0.0
29/05:30am 3.1 -0.9 3.0 99 0.0 ENE 13 15 7 8 1031.1 1031.1 0.0
29/05:10am 3.9 0.1 3.8 99 0.0 ENE 13 17 7 9 1031.1 1031.1 0.0
29/05:00am 3.9 -0.3 3.8 99 0.0 ENE 15 17 8 9 1031.1 1031.1 0.0
29/04:30am 4.5 0.0 4.4 99 0.0 ENE 17 17 9 9 1031.1 1031.1 0.0
29/04:00am 5.1 0.4 5.0 99 0.0 E 19 20 10 11 1031.4 1031.4 0.0
29/03:43am 4.1 -0.1 4.0 99 0.0 ENE 15 17 8 9 1031.4 1031.4 0.0
29/03:30am 4.5 0.4 4.4 99 0.0 E 15 17 8 9 1031.3 1031.3 0.0
29/03:25am 4.6 0.5 4.5 99 0.0 E 15 15 8 8 1031.3 1031.3 0.0
29/03:05am 5.3 1.0 5.2 99 0.0 E 17 19 9 10 1031.3 1031.3 0.0
29/03:00am 5.3 1.4 5.2 99 0.0 E 15 17 8 9 1031.3 1031.3 0.0
29/02:30am 5.0 1.0 4.9 99 0.0 E 15 17 8 9 1031.4 1031.4 0.0
29/02:27am 5.0 1.0 4.9 99 0.0 E 15 17 8 9 1031.4 1031.4 0.0
29/02:23am 5.0 0.6 4.9 99 0.0 E 17 17 9 9 1031.5 1031.5 0.0
29/02:00am 5.3 1.4 5.2 99 0.0 E 15 17 8 9 1031.6 1031.6 0.0
29/01:30am 5.4 1.4 5.0 97 0.2 ESE 15 17 8 9 1031.6 1031.6 0.0
29/01:00am 5.4 1.0 4.8 96 0.3 ESE 17 17 9 9 1031.7 1031.7 0.0
29/12:30am 6.8 2.7 6.2 96 0.3 ESE 17 19 9 10 1032.0 1032.0 0.0
29/12:00am 7.5 3.6 6.9 96 0.3 ESE 17 19 9 10 1032.2 1032.3 0.0
 
Date/Time
CST
Temp
°C
App
Temp
°C
Dew
Point
Rel
Hum
%
Delta-T
°C
Wind Press
QNH
hPa
Press
MSL
hPa
Rain
since 9 am
mm
Dir
 
Spd
km/h
Gust
km/h
Spd
kts
Gust
kts
28/11:46pm 6.7 2.2 6.0 95 0.3 ESE 19 20 10 11 1032.3 1032.4 0.0
28/11:30pm 6.4 2.2 5.7 95 0.3 ESE 17 19 9 10 1032.4 1032.5 0.0
28/11:00pm 5.1 0.9 3.9 92 0.5 E 15 15 8 8 1032.4 1032.5 0.0
28/10:30pm 5.9 2.2 4.4 90 0.6 ENE 13 15 7 8 1032.5 1032.6 0.0
28/10:00pm 6.0 1.8 4.0 87 0.9 E 15 17 8 9 1032.7 1032.8 0.0
28/09:30pm 6.9 2.8 4.6 85 1.0 ENE 15 17 8 9 1032.7 1032.8 0.0
28/09:00pm 8.5 4.2 5.4 81 1.4 ESE 17 20 9 11 1032.5 1032.6 0.0
28/08:30pm 8.6 3.9 6.2 85 1.1 SE 20 20 11 11 1032.3 1032.4 0.0
28/08:00pm 8.0 4.2 5.6 85 1.1 SE 15 17 8 9 1032.1 1032.1 0.0
28/07:30pm 8.5 4.4 6.0 84 1.1 SSE 17 17 9 9 1031.8 1031.8 0.0
28/07:00pm 9.5 5.8 6.2 80 1.5 SSE 15 15 8 8 1031.7 1031.7 0.0
28/06:30pm 11.1 7.5 6.6 74 2.1 SE 15 17 8 9 1031.6 1031.6 0.0
28/06:00pm 12.7 9.2 7.4 70 2.6 SE 15 19 8 10 1031.5 1031.5 0.0
28/05:30pm 14.2 9.9 7.9 66 3.1 SSE 20 28 11 15 1031.3 1031.3 0.0
28/05:00pm 15.3 10.1 7.1 58 4.0 SSE 24 30 13 16 1031.4 1031.4 0.0
28/04:30pm 15.6 10.2 6.3 54 4.5 SSE 24 32 13 17 1031.3 1031.3 0.0
28/04:00pm 16.1 10.6 6.0 51 4.9 SSE 24 32 13 17 1031.3 1031.3 0.0
28/03:30pm 17.0 11.6 4.7 44 5.8 SSE 22 30 12 16 1031.3 1031.3 0.0
28/03:00pm 17.2 11.6 3.5 40 6.3 SSE 22 30 12 16 1031.3 1031.3 0.0
28/02:30pm 17.5 12.3 3.4 39 6.5 SSE 20 28 11 15 1031.4 1031.4 0.0
28/02:00pm 17.8 12.9 1.7 34 7.2 SE 17 26 9 14 1031.7 1031.7 0.0
28/01:30pm 18.0 14.2 1.5 33 7.3 E 11 20 6 11 1032.0 1032.0 0.0
28/01:00pm 17.9 14.2 2.6 36 7.0 NE 11 17 6 9 1032.5 1032.6 0.0
28/12:30pm 16.6 12.6 2.6 39 6.3 ESE 13 17 7 9 1033.0 1033.1 0.0
28/12:00pm 16.6 13.4 3.3 41 6.1 ENE 9 17 5 9 1033.4 1033.5 0.0
28/11:30am 15.8 12.5 4.5 47 5.3 NE 11 15 6 8 1033.8 1033.9 0.0
28/11:00am 14.7 11.4 4.7 51 4.7 NE 11 17 6 9 1034.1 1034.2 0.0
28/10:30am 13.1 9.5 4.8 57 3.8 NNE 13 17 7 9 1034.3 1034.4 0.0
28/10:00am 11.3 8.5 5.2 66 2.8 NE 9 13 5 7 1034.2 1034.3 0.0
28/09:30am 9.3 5.9 5.9 79 1.5 NE 13 15 7 8 1034.2 1034.3 0.0
28/09:00am 7.5 3.9 6.8 95 0.3 NE 15 19 8 10 1033.9 1034.0 0.2
28/08:30am 5.0 0.6 4.9 99 0.0 NE 17 19 9 10 1033.6 1033.7 0.2
28/08:00am 3.5 -1.5 3.4 99 0.0 NE 19 20 10 11 1033.4 1033.5 0.2
28/07:30am 2.8 -2.4 2.7 99 0.0 NE 19 20 10 11 1033.1 1033.2 0.2
28/07:00am 2.5 -2.0 2.2 98 0.1 NE 15 17 8 9 1032.8 1032.9 0.2
28/06:30am 3.4 -1.3 3.3 99 0.0 NE 17 19 9 10 1032.5 1032.6 0.2
28/06:00am 3.5 -1.2 3.2 98 0.1 ENE 17 19 9 10 1032.1 1032.1 0.2
28/05:30am 3.3 -1.0 3.0 98 0.1 ENE 15 17 8 9 1032.0 1032.0 0.2
28/05:00am 3.3 -1.4 2.9 97 0.2 ENE 17 19 9 10 1031.9 1031.9 0.2
28/04:30am 3.6 -1.1 3.0 96 0.2 ENE 17 19 9 10 1031.9 1031.9 0.0
28/04:00am 5.5 1.2 5.2 98 0.1 E 17 19 9 10 1031.9 1031.9 0.0
28/03:30am 4.6 0.1 4.3 98 0.1 ESE 17 19 9 10 1032.0 1032.0 0.0
28/03:00am 4.4 0.2 4.0 97 0.2 E 15 17 8 9 1032.1 1032.1 0.0
28/02:30am 4.8 0.3 4.4 97 0.2 E 17 19 9 10 1032.0 1032.0 0.0
28/02:00am 5.0 0.5 4.4 96 0.3 E 17 19 9 10 1031.9 1031.9 0.0
28/01:30am 6.1 1.9 5.5 96 0.3 E 17 17 9 9 1031.9 1031.9 0.0
28/01:00am 6.7 2.6 6.3 97 0.2 E 17 19 9 10 1031.9 1031.9 0.0
28/12:30am 7.0 3.1 6.9 99 0.0 E 17 20 9 11 1032.1 1032.1 0.0
28/12:20am 6.6 2.6 6.5 99 0.0 E 17 20 9 11 1032.1 1032.1 0.0
28/12:00am 6.3 2.5 6.0 98 0.1 E 15 17 8 9 1032.3 1032.4 0.0
 
Date/Time
CST
Temp
°C
App
Temp
°C
Dew
Point
Rel
Hum
%
Delta-T
°C
Wind Press
QNH
hPa
Press
MSL
hPa
Rain
since 9 am
mm
Dir
 
Spd
km/h
Gust
km/h
Spd
kts
Gust
kts
27/11:30pm 6.5 2.4 6.1 97 0.2 E 17 17 9 9 1032.3 1032.4 0.0
27/11:03pm 7.2 3.6 6.6 96 0.3 E 15 17 8 9 1032.3 1032.4 0.0
27/11:00pm 7.5 3.9 6.8 95 0.3 ESE 15 17 8 9 1032.3 1032.4 0.0
27/10:30pm 7.3 3.2 6.1 92 0.5 ESE 17 19 9 10 1032.3 1032.4 0.0
27/10:00pm 8.2 4.6 6.8 91 0.7 SE 15 17 8 9 1032.2 1032.3 0.0
27/09:30pm 8.5 4.6 7.0 90 0.7 SE 17 19 9 10 1032.4 1032.5 0.0
27/09:00pm 8.7 4.7 6.8 88 0.9 ESE 17 19 9 10 1032.2 1032.3 0.0
27/08:30pm 8.8 5.2 6.8 87 0.9 SE 15 17 8 9 1032.1 1032.1 0.0
27/08:00pm 9.2 5.2 6.6 84 1.2 SE 17 19 9 10 1032.0 1032.0 0.0
27/07:30pm 9.1 5.4 6.2 82 1.3 SE 15 17 8 9 1031.8 1031.8 0.0
27/07:00pm 9.4 5.5 5.4 76 1.8 SE 15 17 8 9 1031.7 1031.7 0.0
27/06:30pm 11.0 7.2 6.0 71 2.3 SE 15 17 8 9 1031.2 1031.2 0.0
27/06:00pm 12.9 9.2 6.3 64 3.1 SE 15 17 8 9 1030.8 1030.8 0.0
27/05:30pm 15.3 11.2 6.1 54 4.4 SE 17 22 9 12 1030.7 1030.7 0.0
27/05:00pm 18.4 14.8 0.5 30 7.9 ENE 9 13 5 7 1030.5 1030.5 0.0
27/04:30pm 19.0 15.3 0.1 28 8.2 NNE 9 17 5 9 1030.4 1030.4 0.0
27/04:00pm 19.0 14.9 0.1 28 8.3 N 11 17 6 9 1030.4 1030.4 0.0
27/03:30pm 18.7 14.2 -0.2 28 8.2 NE 13 19 7 10 1030.5 1030.5 0.0
27/03:00pm 18.9 15.0 1.4 31 7.8 ENE 11 17 6 9 1030.3 1030.3 0.0
27/02:30pm 18.9 15.1 1.9 32 7.7 NE 11 19 6 10 1030.4 1030.4 0.0
27/02:00pm 18.6 15.5 1.2 31 7.8 NE 7 17 4 9 1030.7 1030.7 0.0
27/01:30pm 18.1 14.8 2.4 35 7.1 N 9 17 5 9 1031.0 1031.0 0.0

Other Formats:

Comma delimited format used in spreadsheet applications
http://www.bom.gov.au/fwo/IDS60801/IDS60801.94651.axf

JavaScript Object Notation format (JSON) in row-major order
http://www.bom.gov.au/fwo/IDS60801/IDS60801.94651.json